sensor_id;sensor_type;location;lat;lon;timestamp;P1;durP1;ratioP1;P2;durP2;ratioP2
19260;SDS011;9764;48.114;11.670;2023-02-24T00:00:19;1.50;;;1.40;;
19260;SDS011;9764;48.114;11.670;2023-02-24T00:03:03;2.50;;;1.67;;
19260;SDS011;9764;48.114;11.670;2023-02-24T00:05:36;1.60;;;1.33;;
19260;SDS011;9764;48.114;11.670;2023-02-24T00:08:09;1.92;;;1.38;;
19260;SDS011;9764;48.114;11.670;2023-02-24T00:10:39;1.67;;;1.30;;
19260;SDS011;9764;48.114;11.670;2023-02-24T00:13:08;1.73;;;1.55;;
19260;SDS011;9764;48.114;11.670;2023-02-24T00:15:38;2.08;;;1.35;;
19260;SDS011;9764;48.114;11.670;2023-02-24T00:18:06;1.50;;;1.40;;
19260;SDS011;9764;48.114;11.670;2023-02-24T00:20:35;1.40;;;1.30;;
19260;SDS011;9764;48.114;11.670;2023-02-24T00:23:04;1.70;;;1.50;;
19260;SDS011;9764;48.114;11.670;2023-02-24T00:25:35;2.08;;;1.58;;
19260;SDS011;9764;48.114;11.670;2023-02-24T00:28:05;1.83;;;1.40;;
19260;SDS011;9764;48.114;11.670;2023-02-24T00:30:34;1.95;;;1.58;;
19260;SDS011;9764;48.114;11.670;2023-02-24T00:33:02;2.30;;;1.42;;
19260;SDS011;9764;48.114;11.670;2023-02-24T00:35:32;1.33;;;1.20;;
19260;SDS011;9764;48.114;11.670;2023-02-24T00:38:00;1.60;;;1.50;;
19260;SDS011;9764;48.114;11.670;2023-02-24T00:40:28;1.65;;;1.27;;
19260;SDS011;9764;48.114;11.670;2023-02-24T00:42:58;1.63;;;1.25;;
19260;SDS011;9764;48.114;11.670;2023-02-24T00:45:28;2.78;;;1.60;;
19260;SDS011;9764;48.114;11.670;2023-02-24T00:47:59;3.00;;;1.77;;
19260;SDS011;9764;48.114;11.670;2023-02-24T00:50:30;3.08;;;1.40;;
19260;SDS011;9764;48.114;11.670;2023-02-24T00:52:59;1.40;;;1.30;;
19260;SDS011;9764;48.114;11.670;2023-02-24T00:55:27;1.30;;;1.20;;
19260;SDS011;9764;48.114;11.670;2023-02-24T00:58:02;1.58;;;1.40;;
19260;SDS011;9764;48.114;11.670;2023-02-24T01:00:34;1.50;;;1.33;;
19260;SDS011;9764;48.114;11.670;2023-02-24T01:03:04;1.42;;;1.33;;
19260;SDS011;9764;48.114;11.670;2023-02-24T01:05:34;1.80;;;1.70;;
19260;SDS011;9764;48.114;11.670;2023-02-24T01:08:03;2.65;;;1.30;;
19260;SDS011;9764;48.114;11.670;2023-02-24T01:10:31;1.50;;;1.40;;
19260;SDS011;9764;48.114;11.670;2023-02-24T01:13:00;2.38;;;1.60;;
19260;SDS011;9764;48.114;11.670;2023-02-24T01:15:28;1.40;;;1.30;;
19260;SDS011;9764;48.114;11.670;2023-02-24T01:17:58;1.83;;;1.45;;
19260;SDS011;9764;48.114;11.670;2023-02-24T01:20:26;3.58;;;1.63;;
19260;SDS011;9764;48.114;11.670;2023-02-24T01:22:55;2.00;;;1.67;;
19260;SDS011;9764;48.114;11.670;2023-02-24T01:25:24;2.15;;;1.30;;
19260;SDS011;9764;48.114;11.670;2023-02-24T01:27:56;1.30;;;1.20;;
19260;SDS011;9764;48.114;11.670;2023-02-24T01:30:26;3.53;;;1.20;;
19260;SDS011;9764;48.114;11.670;2023-02-24T01:32:57;1.50;;;1.40;;
19260;SDS011;9764;48.114;11.670;2023-02-24T01:35:27;2.08;;;1.25;;
19260;SDS011;9764;48.114;11.670;2023-02-24T01:38:00;2.67;;;1.10;;
19260;SDS011;9764;48.114;11.670;2023-02-24T01:40:28;1.73;;;1.27;;
19260;SDS011;9764;48.114;11.670;2023-02-24T01:42:58;1.55;;;1.40;;
19260;SDS011;9764;48.114;11.670;2023-02-24T01:45:28;1.60;;;1.50;;
19260;SDS011;9764;48.114;11.670;2023-02-24T01:48:04;1.40;;;1.30;;
19260;SDS011;9764;48.114;11.670;2023-02-24T01:50:38;2.55;;;1.60;;
19260;SDS011;9764;48.114;11.670;2023-02-24T01:53:08;1.63;;;1.30;;
19260;SDS011;9764;48.114;11.670;2023-02-24T01:55:39;1.38;;;1.27;;
19260;SDS011;9764;48.114;11.670;2023-02-24T01:58:14;1.50;;;1.30;;
19260;SDS011;9764;48.114;11.670;2023-02-24T02:00:47;1.20;;;1.20;;
19260;SDS011;9764;48.114;11.670;2023-02-24T02:03:21;1.23;;;1.13;;
19260;SDS011;9764;48.114;11.670;2023-02-24T02:05:53;1.60;;;1.10;;
19260;SDS011;9764;48.114;11.670;2023-02-24T02:08:26;1.30;;;1.20;;
19260;SDS011;9764;48.114;11.670;2023-02-24T02:10:56;2.65;;;1.27;;
19260;SDS011;9764;48.114;11.670;2023-02-24T02:13:32;2.20;;;1.27;;
19260;SDS011;9764;48.114;11.670;2023-02-24T02:16:04;1.38;;;1.27;;
19260;SDS011;9764;48.114;11.670;2023-02-24T02:18:51;1.27;;;1.15;;
19260;SDS011;9764;48.114;11.670;2023-02-24T02:21:48;1.60;;;1.40;;
19260;SDS011;9764;48.114;11.670;2023-02-24T02:24:34;1.90;;;1.30;;
19260;SDS011;9764;48.114;11.670;2023-02-24T02:30:22;1.40;;;1.30;;
19260;SDS011;9764;48.114;11.670;2023-02-24T02:33:23;1.30;;;1.15;;
19260;SDS011;9764;48.114;11.670;2023-02-24T02:36:18;1.42;;;1.33;;
19260;SDS011;9764;48.114;11.670;2023-02-24T02:38:52;1.20;;;1.10;;
19260;SDS011;9764;48.114;11.670;2023-02-24T02:41:26;1.38;;;1.25;;
19260;SDS011;9764;48.114;11.670;2023-02-24T02:44:01;1.63;;;1.30;;
19260;SDS011;9764;48.114;11.670;2023-02-24T02:46:38;1.33;;;1.20;;
19260;SDS011;9764;48.114;11.670;2023-02-24T02:49:12;1.45;;;1.20;;
19260;SDS011;9764;48.114;11.670;2023-02-24T02:51:48;1.40;;;1.30;;
19260;SDS011;9764;48.114;11.670;2023-02-24T02:54:21;1.30;;;1.20;;
19260;SDS011;9764;48.114;11.670;2023-02-24T02:56:56;1.58;;;1.35;;
19260;SDS011;9764;48.114;11.670;2023-02-24T02:59:30;1.45;;;1.20;;
19260;SDS011;9764;48.114;11.670;2023-02-24T03:02:02;1.65;;;1.52;;
19260;SDS011;9764;48.114;11.670;2023-02-24T03:04:42;1.27;;;1.17;;
19260;SDS011;9764;48.114;11.670;2023-02-24T03:07:18;1.60;;;1.45;;
19260;SDS011;9764;48.114;11.670;2023-02-24T03:09:49;1.40;;;1.30;;
19260;SDS011;9764;48.114;11.670;2023-02-24T03:12:22;1.65;;;1.55;;
19260;SDS011;9764;48.114;11.670;2023-02-24T03:14:57;1.50;;;1.38;;
19260;SDS011;9764;48.114;11.670;2023-02-24T03:17:31;1.88;;;1.33;;
19260;SDS011;9764;48.114;11.670;2023-02-24T03:20:08;1.20;;;1.10;;
19260;SDS011;9764;48.114;11.670;2023-02-24T03:22:46;1.38;;;1.25;;
19260;SDS011;9764;48.114;11.670;2023-02-24T03:25:18;2.55;;;1.58;;
19260;SDS011;9764;48.114;11.670;2023-02-24T03:27:50;1.33;;;1.20;;
19260;SDS011;9764;48.114;11.670;2023-02-24T03:30:25;1.30;;;1.10;;
19260;SDS011;9764;48.114;11.670;2023-02-24T03:32:58;1.25;;;1.15;;
19260;SDS011;9764;48.114;11.670;2023-02-24T03:35:32;1.85;;;1.40;;
19260;SDS011;9764;48.114;11.670;2023-02-24T03:38:06;1.40;;;1.23;;
19260;SDS011;9764;48.114;11.670;2023-02-24T03:40:36;1.50;;;1.40;;
19260;SDS011;9764;48.114;11.670;2023-02-24T03:43:08;1.63;;;1.50;;
19260;SDS011;9764;48.114;11.670;2023-02-24T03:45:43;1.73;;;1.38;;
19260;SDS011;9764;48.114;11.670;2023-02-24T03:48:13;1.42;;;1.30;;
19260;SDS011;9764;48.114;11.670;2023-02-24T03:50:44;1.85;;;1.30;;
19260;SDS011;9764;48.114;11.670;2023-02-24T03:53:31;1.30;;;1.20;;
19260;SDS011;9764;48.114;11.670;2023-02-24T03:56:11;1.42;;;1.15;;
19260;SDS011;9764;48.114;11.670;2023-02-24T03:58:54;4.13;;;1.25;;
19260;SDS011;9764;48.114;11.670;2023-02-24T04:01:40;2.45;;;1.13;;
19260;SDS011;9764;48.114;11.670;2023-02-24T04:04:17;1.38;;;1.27;;
19260;SDS011;9764;48.114;11.670;2023-02-24T04:07:03;2.53;;;1.30;;
19260;SDS011;9764;48.114;11.670;2023-02-24T04:09:39;1.65;;;1.40;;
19260;SDS011;9764;48.114;11.670;2023-02-24T04:12:15;1.58;;;1.35;;
19260;SDS011;9764;48.114;11.670;2023-02-24T04:14:53;1.27;;;1.15;;
19260;SDS011;9764;48.114;11.670;2023-02-24T04:17:25;1.30;;;1.13;;
19260;SDS011;9764;48.114;11.670;2023-02-24T04:19:58;1.67;;;1.27;;
19260;SDS011;9764;48.114;11.670;2023-02-24T04:22:36;2.17;;;1.15;;
19260;SDS011;9764;48.114;11.670;2023-02-24T04:25:09;1.70;;;1.13;;
19260;SDS011;9764;48.114;11.670;2023-02-24T04:27:41;1.75;;;1.30;;
19260;SDS011;9764;48.114;11.670;2023-02-24T04:30:15;5.00;;;1.08;;
19260;SDS011;9764;48.114;11.670;2023-02-24T04:32:43;2.90;;;1.40;;
19260;SDS011;9764;48.114;11.670;2023-02-24T04:35:12;1.95;;;1.20;;
19260;SDS011;9764;48.114;11.670;2023-02-24T04:37:46;1.80;;;1.38;;
19260;SDS011;9764;48.114;11.670;2023-02-24T04:40:18;2.22;;;1.30;;
19260;SDS011;9764;48.114;11.670;2023-02-24T04:42:48;2.40;;;1.35;;
19260;SDS011;9764;48.114;11.670;2023-02-24T04:45:19;1.83;;;1.08;;
19260;SDS011;9764;48.114;11.670;2023-02-24T04:47:49;1.88;;;1.23;;
19260;SDS011;9764;48.114;11.670;2023-02-24T04:50:23;1.63;;;1.48;;
19260;SDS011;9764;48.114;11.670;2023-02-24T04:52:52;2.28;;;1.40;;
19260;SDS011;9764;48.114;11.670;2023-02-24T04:55:23;3.75;;;1.35;;
19260;SDS011;9764;48.114;11.670;2023-02-24T04:57:55;3.13;;;1.20;;
19260;SDS011;9764;48.114;11.670;2023-02-24T05:00:24;1.83;;;1.30;;
19260;SDS011;9764;48.114;11.670;2023-02-24T05:02:59;1.92;;;1.33;;
19260;SDS011;9764;48.114;11.670;2023-02-24T05:05:30;3.60;;;1.40;;
19260;SDS011;9764;48.114;11.670;2023-02-24T05:08:00;4.22;;;1.63;;
19260;SDS011;9764;48.114;11.670;2023-02-24T05:10:35;3.22;;;1.55;;
19260;SDS011;9764;48.114;11.670;2023-02-24T05:13:05;2.25;;;1.20;;
19260;SDS011;9764;48.114;11.670;2023-02-24T05:15:37;4.00;;;1.52;;
19260;SDS011;9764;48.114;11.670;2023-02-24T05:18:08;2.13;;;1.58;;
19260;SDS011;9764;48.114;11.670;2023-02-24T05:20:40;4.35;;;1.65;;
19260;SDS011;9764;48.114;11.670;2023-02-24T05:23:28;4.13;;;1.80;;
19260;SDS011;9764;48.114;11.670;2023-02-24T05:26:00;3.67;;;1.90;;
19260;SDS011;9764;48.114;11.670;2023-02-24T05:28:34;3.10;;;1.88;;
19260;SDS011;9764;48.114;11.670;2023-02-24T05:31:03;2.97;;;1.67;;
19260;SDS011;9764;48.114;11.670;2023-02-24T05:33:34;4.43;;;1.90;;
19260;SDS011;9764;48.114;11.670;2023-02-24T05:36:03;4.15;;;1.48;;
19260;SDS011;9764;48.114;11.670;2023-02-24T05:38:34;5.53;;;2.47;;
19260;SDS011;9764;48.114;11.670;2023-02-24T05:41:05;6.03;;;1.90;;
19260;SDS011;9764;48.114;11.670;2023-02-24T05:43:40;7.05;;;2.05;;
19260;SDS011;9764;48.114;11.670;2023-02-24T05:46:10;5.43;;;2.05;;
19260;SDS011;9764;48.114;11.670;2023-02-24T05:48:39;3.55;;;2.05;;
19260;SDS011;9764;48.114;11.670;2023-02-24T05:51:07;5.28;;;2.03;;
19260;SDS011;9764;48.114;11.670;2023-02-24T05:53:37;3.65;;;1.65;;
19260;SDS011;9764;48.114;11.670;2023-02-24T05:56:09;3.08;;;1.80;;
19260;SDS011;9764;48.114;11.670;2023-02-24T05:58:38;5.00;;;2.30;;
19260;SDS011;9764;48.114;11.670;2023-02-24T06:01:09;5.35;;;2.70;;
19260;SDS011;9764;48.114;11.670;2023-02-24T06:03:42;5.35;;;2.30;;
19260;SDS011;9764;48.114;11.670;2023-02-24T06:06:13;4.35;;;2.22;;
19260;SDS011;9764;48.114;11.670;2023-02-24T06:08:42;5.90;;;2.30;;
19260;SDS011;9764;48.114;11.670;2023-02-24T06:11:17;4.38;;;2.13;;
19260;SDS011;9764;48.114;11.670;2023-02-24T06:13:47;7.45;;;2.45;;
19260;SDS011;9764;48.114;11.670;2023-02-24T06:16:16;4.35;;;2.25;;
19260;SDS011;9764;48.114;11.670;2023-02-24T06:18:46;5.05;;;2.03;;
19260;SDS011;9764;48.114;11.670;2023-02-24T06:21:15;6.07;;;2.38;;
19260;SDS011;9764;48.114;11.670;2023-02-24T06:23:44;4.72;;;2.50;;
19260;SDS011;9764;48.114;11.670;2023-02-24T06:26:12;5.28;;;2.78;;
19260;SDS011;9764;48.114;11.670;2023-02-24T06:28:46;4.90;;;2.45;;
19260;SDS011;9764;48.114;11.670;2023-02-24T06:31:19;6.70;;;2.60;;
19260;SDS011;9764;48.114;11.670;2023-02-24T06:33:48;6.82;;;2.38;;
19260;SDS011;9764;48.114;11.670;2023-02-24T06:36:18;4.22;;;2.20;;
19260;SDS011;9764;48.114;11.670;2023-02-24T06:38:47;4.97;;;2.30;;
19260;SDS011;9764;48.114;11.670;2023-02-24T06:41:18;4.25;;;2.50;;
19260;SDS011;9764;48.114;11.670;2023-02-24T06:43:48;4.22;;;2.33;;
19260;SDS011;9764;48.114;11.670;2023-02-24T06:46:18;6.15;;;2.35;;
19260;SDS011;9764;48.114;11.670;2023-02-24T06:48:46;5.68;;;2.35;;
19260;SDS011;9764;48.114;11.670;2023-02-24T06:51:15;7.03;;;2.85;;
19260;SDS011;9764;48.114;11.670;2023-02-24T06:53:43;5.97;;;3.03;;
19260;SDS011;9764;48.114;11.670;2023-02-24T06:56:12;5.43;;;2.42;;
19260;SDS011;9764;48.114;11.670;2023-02-24T06:58:45;6.45;;;2.60;;
19260;SDS011;9764;48.114;11.670;2023-02-24T07:01:17;5.85;;;2.30;;
19260;SDS011;9764;48.114;11.670;2023-02-24T07:03:51;5.82;;;2.72;;
19260;SDS011;9764;48.114;11.670;2023-02-24T07:06:44;7.05;;;2.33;;
19260;SDS011;9764;48.114;11.670;2023-02-24T07:09:15;6.30;;;2.67;;
19260;SDS011;9764;48.114;11.670;2023-02-24T07:11:46;4.93;;;2.95;;
19260;SDS011;9764;48.114;11.670;2023-02-24T07:14:18;4.47;;;2.30;;
19260;SDS011;9764;48.114;11.670;2023-02-24T07:16:50;6.03;;;2.80;;
19260;SDS011;9764;48.114;11.670;2023-02-24T07:19:22;8.02;;;2.80;;
19260;SDS011;9764;48.114;11.670;2023-02-24T07:21:54;7.63;;;3.00;;
19260;SDS011;9764;48.114;11.670;2023-02-24T07:24:26;7.30;;;3.25;;
19260;SDS011;9764;48.114;11.670;2023-02-24T07:27:02;5.25;;;2.45;;
19260;SDS011;9764;48.114;11.670;2023-02-24T07:29:32;7.10;;;2.65;;
19260;SDS011;9764;48.114;11.670;2023-02-24T07:32:03;6.47;;;2.50;;
19260;SDS011;9764;48.114;11.670;2023-02-24T07:34:34;7.38;;;3.17;;
19260;SDS011;9764;48.114;11.670;2023-02-24T07:37:05;5.07;;;2.47;;
19260;SDS011;9764;48.114;11.670;2023-02-24T07:39:34;5.13;;;2.83;;
19260;SDS011;9764;48.114;11.670;2023-02-24T07:42:06;5.68;;;2.65;;
19260;SDS011;9764;48.114;11.670;2023-02-24T07:44:44;6.50;;;3.17;;
19260;SDS011;9764;48.114;11.670;2023-02-24T07:47:16;5.43;;;2.45;;
19260;SDS011;9764;48.114;11.670;2023-02-24T07:49:44;6.47;;;2.40;;
19260;SDS011;9764;48.114;11.670;2023-02-24T07:52:12;6.47;;;3.13;;
19260;SDS011;9764;48.114;11.670;2023-02-24T07:54:41;5.93;;;3.03;;
19260;SDS011;9764;48.114;11.670;2023-02-24T07:57:09;6.43;;;2.78;;
19260;SDS011;9764;48.114;11.670;2023-02-24T07:59:39;5.63;;;2.72;;
19260;SDS011;9764;48.114;11.670;2023-02-24T08:02:13;5.53;;;2.70;;
19260;SDS011;9764;48.114;11.670;2023-02-24T08:04:43;5.40;;;2.47;;
19260;SDS011;9764;48.114;11.670;2023-02-24T08:07:16;5.72;;;2.97;;
19260;SDS011;9764;48.114;11.670;2023-02-24T08:09:50;6.80;;;3.00;;
19260;SDS011;9764;48.114;11.670;2023-02-24T08:12:40;5.80;;;2.35;;
19260;SDS011;9764;48.114;11.670;2023-02-24T08:15:09;8.32;;;3.17;;
19260;SDS011;9764;48.114;11.670;2023-02-24T08:17:51;4.03;;;2.67;;
19260;SDS011;9764;48.114;11.670;2023-02-24T08:20:25;5.85;;;2.63;;
19260;SDS011;9764;48.114;11.670;2023-02-24T08:22:55;4.90;;;2.70;;
19260;SDS011;9764;48.114;11.670;2023-02-24T08:25:24;7.22;;;2.72;;
19260;SDS011;9764;48.114;11.670;2023-02-24T08:28:02;5.80;;;2.80;;
19260;SDS011;9764;48.114;11.670;2023-02-24T08:30:36;6.65;;;3.15;;
19260;SDS011;9764;48.114;11.670;2023-02-24T08:33:07;5.38;;;2.70;;
19260;SDS011;9764;48.114;11.670;2023-02-24T08:35:38;6.60;;;2.55;;
19260;SDS011;9764;48.114;11.670;2023-02-24T08:38:11;4.53;;;2.58;;
19260;SDS011;9764;48.114;11.670;2023-02-24T08:40:42;5.28;;;3.08;;
19260;SDS011;9764;48.114;11.670;2023-02-24T08:43:21;5.40;;;2.55;;
19260;SDS011;9764;48.114;11.670;2023-02-24T08:46:00;5.63;;;3.10;;
19260;SDS011;9764;48.114;11.670;2023-02-24T08:48:32;5.68;;;2.55;;
19260;SDS011;9764;48.114;11.670;2023-02-24T08:51:10;5.25;;;2.88;;
19260;SDS011;9764;48.114;11.670;2023-02-24T08:53:43;5.68;;;2.80;;
19260;SDS011;9764;48.114;11.670;2023-02-24T08:56:14;4.93;;;2.65;;
19260;SDS011;9764;48.114;11.670;2023-02-24T08:58:51;4.55;;;2.47;;
19260;SDS011;9764;48.114;11.670;2023-02-24T09:01:24;5.10;;;2.28;;
19260;SDS011;9764;48.114;11.670;2023-02-24T09:04:00;3.42;;;2.30;;
19260;SDS011;9764;48.114;11.670;2023-02-24T09:06:38;4.75;;;2.40;;
19260;SDS011;9764;48.114;11.670;2023-02-24T09:09:10;5.25;;;2.83;;
19260;SDS011;9764;48.114;11.670;2023-02-24T09:11:44;5.35;;;2.78;;
19260;SDS011;9764;48.114;11.670;2023-02-24T09:14:13;4.22;;;2.70;;
19260;SDS011;9764;48.114;11.670;2023-02-24T09:16:53;6.18;;;2.75;;
19260;SDS011;9764;48.114;11.670;2023-02-24T09:19:30;4.13;;;2.47;;
19260;SDS011;9764;48.114;11.670;2023-02-24T09:22:30;5.07;;;2.40;;
19260;SDS011;9764;48.114;11.670;2023-02-24T09:24:59;4.15;;;2.50;;
19260;SDS011;9764;48.114;11.670;2023-02-24T09:27:44;4.88;;;2.53;;
19260;SDS011;9764;48.114;11.670;2023-02-24T09:30:18;5.18;;;2.75;;
19260;SDS011;9764;48.114;11.670;2023-02-24T09:33:08;6.90;;;2.72;;
19260;SDS011;9764;48.114;11.670;2023-02-24T09:35:44;4.32;;;2.47;;
19260;SDS011;9764;48.114;11.670;2023-02-24T09:38:20;4.38;;;2.40;;
19260;SDS011;9764;48.114;11.670;2023-02-24T09:41:13;3.50;;;2.30;;
19260;SDS011;9764;48.114;11.670;2023-02-24T09:44:21;3.13;;;2.20;;
19260;SDS011;9764;48.114;11.670;2023-02-24T09:46:55;4.88;;;2.20;;
19260;SDS011;9764;48.114;11.670;2023-02-24T09:49:38;4.68;;;2.55;;
19260;SDS011;9764;48.114;11.670;2023-02-24T09:52:12;6.40;;;2.47;;
19260;SDS011;9764;48.114;11.670;2023-02-24T09:54:46;3.38;;;2.60;;
19260;SDS011;9764;48.114;11.670;2023-02-24T09:57:37;4.70;;;2.25;;
19260;SDS011;9764;48.114;11.670;2023-02-24T10:00:37;5.10;;;2.40;;
19260;SDS011;9764;48.114;11.670;2023-02-24T10:03:11;5.28;;;2.63;;
19260;SDS011;9764;48.114;11.670;2023-02-24T10:06:14;3.83;;;2.55;;
19260;SDS011;9764;48.114;11.670;2023-02-24T10:08:51;4.93;;;2.78;;
19260;SDS011;9764;48.114;11.670;2023-02-24T10:11:24;3.95;;;2.28;;
19260;SDS011;9764;48.114;11.670;2023-02-24T10:14:01;3.67;;;2.20;;
19260;SDS011;9764;48.114;11.670;2023-02-24T10:16:34;4.32;;;2.33;;
19260;SDS011;9764;48.114;11.670;2023-02-24T10:19:19;3.20;;;2.22;;
19260;SDS011;9764;48.114;11.670;2023-02-24T10:21:52;3.42;;;2.13;;
19260;SDS011;9764;48.114;11.670;2023-02-24T10:24:29;4.00;;;2.42;;
19260;SDS011;9764;48.114;11.670;2023-02-24T10:27:07;3.05;;;2.10;;
19260;SDS011;9764;48.114;11.670;2023-02-24T10:29:47;3.35;;;2.03;;
19260;SDS011;9764;48.114;11.670;2023-02-24T10:32:28;4.55;;;2.33;;
19260;SDS011;9764;48.114;11.670;2023-02-24T10:35:11;2.97;;;2.17;;
19260;SDS011;9764;48.114;11.670;2023-02-24T10:37:42;4.30;;;2.22;;
19260;SDS011;9764;48.114;11.670;2023-02-24T10:40:12;3.47;;;2.08;;
19260;SDS011;9764;48.114;11.670;2023-02-24T10:43:03;3.80;;;2.05;;
19260;SDS011;9764;48.114;11.670;2023-02-24T10:45:37;3.08;;;2.13;;
19260;SDS011;9764;48.114;11.670;2023-02-24T10:48:15;3.83;;;2.70;;
19260;SDS011;9764;48.114;11.670;2023-02-24T10:51:08;3.50;;;2.00;;
19260;SDS011;9764;48.114;11.670;2023-02-24T10:53:46;3.47;;;2.20;;
19260;SDS011;9764;48.114;11.670;2023-02-24T10:56:38;5.03;;;2.13;;
19260;SDS011;9764;48.114;11.670;2023-02-24T10:59:12;2.90;;;2.10;;
19260;SDS011;9764;48.114;11.670;2023-02-24T11:02:16;3.00;;;1.92;;
19260;SDS011;9764;48.114;11.670;2023-02-24T11:04:59;3.85;;;2.03;;
19260;SDS011;9764;48.114;11.670;2023-02-24T11:08:03;3.97;;;2.10;;
19260;SDS011;9764;48.114;11.670;2023-02-24T11:10:41;4.45;;;2.38;;
19260;SDS011;9764;48.114;11.670;2023-02-24T11:13:24;3.67;;;2.13;;
19260;SDS011;9764;48.114;11.670;2023-02-24T11:16:12;2.60;;;1.60;;
19260;SDS011;9764;48.114;11.670;2023-02-24T11:18:58;3.42;;;1.98;;
19260;SDS011;9764;48.114;11.670;2023-02-24T11:21:26;2.85;;;1.92;;
19260;SDS011;9764;48.114;11.670;2023-02-24T11:23:55;3.33;;;2.40;;
19260;SDS011;9764;48.114;11.670;2023-02-24T11:26:31;3.33;;;2.22;;
19260;SDS011;9764;48.114;11.670;2023-02-24T11:29:09;3.03;;;1.90;;
19260;SDS011;9764;48.114;11.670;2023-02-24T11:31:58;4.35;;;2.28;;
19260;SDS011;9764;48.114;11.670;2023-02-24T11:34:42;4.00;;;2.25;;
19260;SDS011;9764;48.114;11.670;2023-02-24T11:37:19;1.98;;;1.75;;
19260;SDS011;9764;48.114;11.670;2023-02-24T11:40:01;6.60;;;2.03;;
19260;SDS011;9764;48.114;11.670;2023-02-24T11:42:36;7.55;;;2.33;;
19260;SDS011;9764;48.114;11.670;2023-02-24T11:45:10;5.88;;;2.03;;
19260;SDS011;9764;48.114;11.670;2023-02-24T11:47:51;2.78;;;1.77;;
19260;SDS011;9764;48.114;11.670;2023-02-24T11:50:25;5.03;;;2.10;;
19260;SDS011;9764;48.114;11.670;2023-02-24T11:53:00;3.65;;;2.30;;
19260;SDS011;9764;48.114;11.670;2023-02-24T11:55:33;4.32;;;1.85;;
19260;SDS011;9764;48.114;11.670;2023-02-24T11:58:06;2.58;;;1.70;;
19260;SDS011;9764;48.114;11.670;2023-02-24T12:00:48;2.80;;;2.00;;
19260;SDS011;9764;48.114;11.670;2023-02-24T12:03:24;3.35;;;1.98;;
19260;SDS011;9764;48.114;11.670;2023-02-24T12:06:00;3.65;;;2.08;;
19260;SDS011;9764;48.114;11.670;2023-02-24T12:08:36;3.92;;;1.98;;
19260;SDS011;9764;48.114;11.670;2023-02-24T12:11:07;2.45;;;1.85;;
19260;SDS011;9764;48.114;11.670;2023-02-24T12:13:44;3.13;;;1.90;;
19260;SDS011;9764;48.114;11.670;2023-02-24T12:16:18;5.55;;;2.45;;
19260;SDS011;9764;48.114;11.670;2023-02-24T12:18:53;2.95;;;1.65;;
19260;SDS011;9764;48.114;11.670;2023-02-24T12:21:28;4.75;;;1.70;;
19260;SDS011;9764;48.114;11.670;2023-02-24T12:24:01;2.13;;;1.70;;
19260;SDS011;9764;48.114;11.670;2023-02-24T12:26:35;3.75;;;1.90;;
19260;SDS011;9764;48.114;11.670;2023-02-24T12:29:15;3.75;;;1.88;;
19260;SDS011;9764;48.114;11.670;2023-02-24T12:31:59;2.13;;;1.63;;
19260;SDS011;9764;48.114;11.670;2023-02-24T12:34:39;3.35;;;2.03;;
19260;SDS011;9764;48.114;11.670;2023-02-24T12:37:29;2.50;;;1.77;;
19260;SDS011;9764;48.114;11.670;2023-02-24T12:40:11;3.60;;;1.95;;
19260;SDS011;9764;48.114;11.670;2023-02-24T12:42:50;2.58;;;1.70;;
19260;SDS011;9764;48.114;11.670;2023-02-24T12:45:30;2.20;;;1.60;;
19260;SDS011;9764;48.114;11.670;2023-02-24T12:48:07;2.63;;;1.77;;
19260;SDS011;9764;48.114;11.670;2023-02-24T12:50:49;2.92;;;1.70;;
19260;SDS011;9764;48.114;11.670;2023-02-24T12:53:26;3.72;;;2.15;;
19260;SDS011;9764;48.114;11.670;2023-02-24T12:56:01;2.70;;;1.70;;
19260;SDS011;9764;48.114;11.670;2023-02-24T12:58:38;4.07;;;1.80;;
19260;SDS011;9764;48.114;11.670;2023-02-24T13:01:12;3.88;;;1.92;;
19260;SDS011;9764;48.114;11.670;2023-02-24T13:03:54;2.50;;;1.65;;
19260;SDS011;9764;48.114;11.670;2023-02-24T13:06:36;2.15;;;1.80;;
19260;SDS011;9764;48.114;11.670;2023-02-24T13:09:13;2.08;;;1.67;;
19260;SDS011;9764;48.114;11.670;2023-02-24T13:11:47;2.45;;;1.70;;
19260;SDS011;9764;48.114;11.670;2023-02-24T13:14:22;3.92;;;1.67;;
19260;SDS011;9764;48.114;11.670;2023-02-24T13:17:01;3.05;;;1.50;;
19260;SDS011;9764;48.114;11.670;2023-02-24T13:19:31;2.22;;;1.35;;
19260;SDS011;9764;48.114;11.670;2023-02-24T13:22:03;4.20;;;1.55;;
19260;SDS011;9764;48.114;11.670;2023-02-24T13:24:34;4.88;;;1.85;;
19260;SDS011;9764;48.114;11.670;2023-02-24T13:27:05;2.10;;;1.83;;
19260;SDS011;9764;48.114;11.670;2023-02-24T13:29:43;2.85;;;1.80;;
19260;SDS011;9764;48.114;11.670;2023-02-24T13:32:23;2.70;;;1.90;;
19260;SDS011;9764;48.114;11.670;2023-02-24T13:34:55;2.20;;;1.60;;
19260;SDS011;9764;48.114;11.670;2023-02-24T13:37:27;2.45;;;1.55;;
19260;SDS011;9764;48.114;11.670;2023-02-24T13:39:57;3.33;;;1.55;;
19260;SDS011;9764;48.114;11.670;2023-02-24T13:42:26;1.90;;;1.45;;
19260;SDS011;9764;48.114;11.670;2023-02-24T13:45:01;2.50;;;1.70;;
19260;SDS011;9764;48.114;11.670;2023-02-24T13:51:09;4.68;;;1.60;;
19260;SDS011;9764;48.114;11.670;2023-02-24T13:53:54;1.75;;;1.58;;
19260;SDS011;9764;48.114;11.670;2023-02-24T13:56:34;4.35;;;1.67;;
19260;SDS011;9764;48.114;11.670;2023-02-24T13:59:13;2.90;;;1.60;;
19260;SDS011;9764;48.114;11.670;2023-02-24T14:01:50;3.17;;;1.95;;
19260;SDS011;9764;48.114;11.670;2023-02-24T14:04:25;2.72;;;1.70;;
19260;SDS011;9764;48.114;11.670;2023-02-24T14:06:56;3.22;;;1.38;;
19260;SDS011;9764;48.114;11.670;2023-02-24T14:09:29;1.70;;;1.60;;
19260;SDS011;9764;48.114;11.670;2023-02-24T14:12:02;2.15;;;1.70;;
19260;SDS011;9764;48.114;11.670;2023-02-24T14:14:33;3.30;;;2.00;;
19260;SDS011;9764;48.114;11.670;2023-02-24T14:17:01;2.08;;;1.70;;
19260;SDS011;9764;48.114;11.670;2023-02-24T14:19:30;2.38;;;1.30;;
19260;SDS011;9764;48.114;11.670;2023-02-24T14:21:58;1.80;;;1.48;;
19260;SDS011;9764;48.114;11.670;2023-02-24T14:24:27;3.40;;;1.83;;
19260;SDS011;9764;48.114;11.670;2023-02-24T14:26:57;2.40;;;1.58;;
19260;SDS011;9764;48.114;11.670;2023-02-24T14:29:27;3.63;;;1.63;;
19260;SDS011;9764;48.114;11.670;2023-02-24T14:31:58;3.25;;;1.50;;
19260;SDS011;9764;48.114;11.670;2023-02-24T14:34:28;3.05;;;1.77;;
19260;SDS011;9764;48.114;11.670;2023-02-24T14:37:00;2.45;;;1.67;;
19260;SDS011;9764;48.114;11.670;2023-02-24T14:39:30;2.85;;;1.70;;
19260;SDS011;9764;48.114;11.670;2023-02-24T14:42:09;1.95;;;1.52;;
19260;SDS011;9764;48.114;11.670;2023-02-24T14:44:39;2.08;;;1.45;;
19260;SDS011;9764;48.114;11.670;2023-02-24T14:47:10;2.17;;;1.40;;
19260;SDS011;9764;48.114;11.670;2023-02-24T14:49:41;3.55;;;1.75;;
19260;SDS011;9764;48.114;11.670;2023-02-24T14:52:21;1.65;;;1.45;;
19260;SDS011;9764;48.114;11.670;2023-02-24T14:54:56;2.25;;;1.85;;
19260;SDS011;9764;48.114;11.670;2023-02-24T14:57:29;2.70;;;1.50;;
19260;SDS011;9764;48.114;11.670;2023-02-24T15:00:03;4.30;;;1.50;;
19260;SDS011;9764;48.114;11.670;2023-02-24T15:02:38;3.10;;;1.30;;
19260;SDS011;9764;48.114;11.670;2023-02-24T15:05:11;2.05;;;1.80;;
19260;SDS011;9764;48.114;11.670;2023-02-24T15:07:39;1.65;;;1.48;;
19260;SDS011;9764;48.114;11.670;2023-02-24T15:10:16;2.03;;;1.60;;
19260;SDS011;9764;48.114;11.670;2023-02-24T15:12:49;1.65;;;1.35;;
19260;SDS011;9764;48.114;11.670;2023-02-24T15:15:20;2.53;;;1.60;;
19260;SDS011;9764;48.114;11.670;2023-02-24T15:17:53;2.05;;;1.50;;
19260;SDS011;9764;48.114;11.670;2023-02-24T15:20:25;2.97;;;1.92;;
19260;SDS011;9764;48.114;11.670;2023-02-24T15:22:55;1.65;;;1.30;;
19260;SDS011;9764;48.114;11.670;2023-02-24T15:25:24;3.25;;;1.42;;
19260;SDS011;9764;48.114;11.670;2023-02-24T15:28:21;1.73;;;1.38;;
19260;SDS011;9764;48.114;11.670;2023-02-24T15:30:59;2.20;;;1.65;;
19260;SDS011;9764;48.114;11.670;2023-02-24T15:33:32;2.92;;;1.60;;
19260;SDS011;9764;48.114;11.670;2023-02-24T15:36:05;3.33;;;1.55;;
19260;SDS011;9764;48.114;11.670;2023-02-24T15:38:37;2.65;;;1.67;;